Welcome!

Visit our other weather sites:

Template documentation
and downloads

And another site



There are no active watches, warnings or advisories

Nearby METAR Reports

   
KAVP - Albrightsville, PA
Updated: Apr 7 2020 3:54 am
Clear  
Clear  
   Wind: ESE 3.5 mph
Wind: ESE 3.5 mph
Temperature: 41°F
Wind Chill: 39.2°F
Dew Point: 26.6°F
Humidity: 57%
Barometer: 29.96 inHg
Clouds: Clear
Visibility: 10 mi
Cloud details: Clear
KAVP 070854Z 11003KT 10SM CLR 05/M03 A2996 RMK AO2 SLP146 T00501033 55009
KIWA - Apache Junction, AZ
Updated: Apr 7 2020 3:55 am
Clear  
Clear  
   Wind: ESE 9.2 mph
Wind: ESE 9.2 mph
Temperature: 59°F
Dew Point: 26.6°F
Humidity: 29%
Barometer: 30.04 inHg
Clouds: Clear
Visibility: 10 mi
Cloud details: Clear
KIWA 070855Z AUTO 11008KT 10SM CLR 15/M03 A3004 RMK AO2 T01461025
KPKB - Blue Rock, OH
Updated: Apr 7 2020 3:53 am
  
  
   Wind: Calm
Wind: Calm
Barometer: 29.95 inHg
KPKB 070853Z AUTO A2995 RMK AO2 SLPNO 56010 PWINO FZRANO $
KHVN - Branford, CT
Updated: Apr 7 2020 3:53 am
Overcast  
Overcast  
   Wind: West 3.5 mph
Wind: West 3.5 mph
Temperature: 51.8°F
Dew Point: 30.2°F
Humidity: 44%
Barometer: 29.94 inHg
Clouds: Overcast
Visibility: 10 mi
Cloud details: Mostly Cloudy 2438 m,
Overcast 2896 m
KHVN 070853Z AUTO 26003KT 10SM BKN080 OVC095 11/M01 A2994 RMK AO2 SLP138 T01061011 56003
KPHX - Carefree, AZ
Updated: Apr 7 2020 3:51 am
Partly Cloudy  
Partly Cloudy  
   Wind: Calm
Wind: Calm
Temperature: 62.6°F
Dew Point: 35.6°F
Humidity: 37%
Barometer: 30 inHg
Clouds: Partly Cloudy
Visibility: 10 mi
Cloud details: Partly Cloudy 7620 m
KPHX 070851Z 00000KT 10SM SCT250 17/02 A3000 RMK AO2 SLP145 T01720017 51011
 

Script developed by  Saratoga-weather.org Adapted for the template by  Weerstation Leuven